createdAt,value
2019-04-20T00:00:39.926Z,3.30
2019-04-20T00:03:37.966Z,3.30
2019-04-20T00:06:15.278Z,3.30
2019-04-20T00:08:55.741Z,3.20
2019-04-20T00:11:29.447Z,3.20
2019-04-20T00:14:05.579Z,3.20
2019-04-20T00:16:35.784Z,3.20
2019-04-20T00:19:10.662Z,3.10
2019-04-20T00:21:57.521Z,3.10
2019-04-20T00:24:31.983Z,2.80
2019-04-20T00:27:22.428Z,2.90
2019-04-20T00:29:54.770Z,2.90
2019-04-20T00:32:19.923Z,2.80
2019-04-20T00:34:48.606Z,2.90
2019-04-20T00:37:23.263Z,2.80
2019-04-20T00:39:57.823Z,2.70
2019-04-20T00:42:40.210Z,2.70
2019-04-20T00:45:21.362Z,2.70
2019-04-20T00:50:35.815Z,2.90
2019-04-20T00:53:06.721Z,2.90
2019-04-20T00:55:31.952Z,2.70
2019-04-20T00:58:17.386Z,2.70
2019-04-20T01:01:07.419Z,2.90
2019-04-20T01:03:33.919Z,2.60
2019-04-20T01:06:19.362Z,2.60
2019-04-20T01:08:40.120Z,2.70
2019-04-20T01:11:28.813Z,2.80
2019-04-20T01:13:58.896Z,2.60
2019-04-20T01:16:38.880Z,2.70
2019-04-20T01:19:20.885Z,2.60
2019-04-20T01:21:59.731Z,2.70
2019-04-20T01:24:35.378Z,2.90
2019-04-20T01:27:16.805Z,2.70
2019-04-20T01:29:48.812Z,2.70
2019-04-20T01:32:26.682Z,2.60
2019-04-20T01:35:03.894Z,2.80
2019-04-20T01:37:45.093Z,2.70
2019-04-20T01:40:10.920Z,2.40
2019-04-20T01:42:44.549Z,2.40
2019-04-20T01:45:27.176Z,2.40
2019-04-20T01:47:56.241Z,2.20
2019-04-20T01:50:33.253Z,2.10
2019-04-20T01:53:12.432Z,2.10
2019-04-20T01:55:58.416Z,1.90
2019-04-20T01:58:35.353Z,1.80
2019-04-20T02:00:57.272Z,1.80
2019-04-20T02:03:50.828Z,1.80
2019-04-20T02:06:26.538Z,1.70
2019-04-20T02:09:11.963Z,1.90
2019-04-20T02:11:43.577Z,1.80
2019-04-20T02:14:24.224Z,1.70
2019-04-20T02:17:04.314Z,1.70
2019-04-20T02:19:44.195Z,1.70
2019-04-20T02:22:15.745Z,1.50
2019-04-20T02:24:40.587Z,1.50
2019-04-20T02:27:19.731Z,1.50
2019-04-20T02:30:23.879Z,1.50
2019-04-20T02:33:14.006Z,1.60
2019-04-20T02:35:45.360Z,1.40
2019-04-20T02:38:45.010Z,1.40
2019-04-20T02:40:56.853Z,1.20
2019-04-20T02:43:43.886Z,1.60
2019-04-20T02:45:59.406Z,1.90
2019-04-20T02:48:40.068Z,2.10
2019-04-20T02:51:16.529Z,2.20
2019-04-20T03:01:29.197Z,1.90
2019-04-20T03:03:50.304Z,1.90
2019-04-20T03:06:32.650Z,1.70
2019-04-20T03:09:22.562Z,1.40
2019-04-20T03:11:59.705Z,1.70
2019-04-20T03:14:21.807Z,1.80
2019-04-20T03:17:10.428Z,1.60
2019-04-20T03:19:37.659Z,1.40
2019-04-20T03:22:23.586Z,1.60
2019-04-20T03:25:13.476Z,1.80
2019-04-20T03:27:30.590Z,1.90
2019-04-20T03:30:39.689Z,2.00
2019-04-20T03:35:28.315Z,1.50
2019-04-20T03:38:00.126Z,1.80
2019-04-20T03:40:32.392Z,1.70
2019-04-20T03:42:48.725Z,1.40
2019-04-20T03:45:24.767Z,1.20
2019-04-20T03:48:09.177Z,1.20
2019-04-20T03:50:51.127Z,1.10
2019-04-20T03:53:27.832Z,1.10
2019-04-20T03:56:28.319Z,1.10
2019-04-20T03:59:13.403Z,1.10
2019-04-20T04:02:15.892Z,1.20
2019-04-20T04:04:34.447Z,1.20
2019-04-20T04:06:53.917Z,1.20
2019-04-20T04:09:35.458Z,1.60
2019-04-20T04:12:40.355Z,1.80
2019-04-20T04:15:13.070Z,1.70
2019-04-20T04:17:48.219Z,1.70
2019-04-20T04:20:23.094Z,1.90
2019-04-20T04:23:18.433Z,2.00
2019-04-20T04:25:47.520Z,2.10
2019-04-20T04:28:25.165Z,2.30
2019-04-20T04:31:06.365Z,2.40
2019-04-20T04:33:53.170Z,2.40
2019-04-20T04:36:10.490Z,2.30
2019-04-20T04:38:54.653Z,2.50
2019-04-20T04:41:26.759Z,2.50
2019-04-20T04:43:58.892Z,2.70
2019-04-20T04:46:16.568Z,2.90
2019-04-20T04:51:52.362Z,2.90
2019-04-20T04:54:29.352Z,3.20
2019-04-20T04:56:57.230Z,3.30
2019-04-20T04:59:31.716Z,3.40
2019-04-20T05:02:07.576Z,3.50
2019-04-20T05:05:10.354Z,3.60
2019-04-20T05:07:43.771Z,3.70
2019-04-20T05:10:11.882Z,3.90
2019-04-20T05:12:46.437Z,4.00
2019-04-20T05:15:32.385Z,4.20
2019-04-20T05:18:16.759Z,4.30
2019-04-20T05:20:54.745Z,4.30
2019-04-20T05:23:28.019Z,4.50
2019-04-20T05:26:14.370Z,4.60
2019-04-20T05:28:40.293Z,4.70
2019-04-20T05:31:06.879Z,4.80
2019-04-20T05:34:04.170Z,4.90
2019-04-20T05:36:37.271Z,5.00
2019-04-20T05:39:25.194Z,5.10
2019-04-20T05:41:41.937Z,5.30
2019-04-20T05:44:19.316Z,5.50
2019-04-20T05:47:02.924Z,5.60
2019-04-20T05:49:30.345Z,5.70
2019-04-20T05:52:17.480Z,5.90
2019-04-20T05:54:47.613Z,6.00
2019-04-20T05:57:25.014Z,6.20
2019-04-20T06:00:05.587Z,6.40
2019-04-20T06:02:31.701Z,6.50
2019-04-20T06:05:11.425Z,6.70
2019-04-20T06:07:48.708Z,6.90
2019-04-20T06:10:34.623Z,7.10
2019-04-20T06:13:14.747Z,7.30
2019-04-20T06:15:53.861Z,7.40
2019-04-20T06:18:33.628Z,7.60
2019-04-20T06:21:27.738Z,7.70
2019-04-20T06:24:15.629Z,7.90
2019-04-20T06:26:52.018Z,8.10
2019-04-20T06:29:15.675Z,8.30
2019-04-20T06:31:53.431Z,8.40
2019-04-20T06:37:02.931Z,8.90
2019-04-20T06:42:33.616Z,9.30
2019-04-20T06:44:48.235Z,9.40
2019-04-20T06:47:34.966Z,9.70
2019-04-20T06:50:07.405Z,10.00
2019-04-20T06:52:42.560Z,10.60
2019-04-20T06:55:19.835Z,11.10
2019-04-20T06:58:04.325Z,11.50
2019-04-20T07:00:44.465Z,12.20
2019-04-20T07:03:17.811Z,12.30
2019-04-20T07:05:54.791Z,12.80
2019-04-20T07:11:11.129Z,13.50
2019-04-20T07:13:35.923Z,13.70
2019-04-20T07:16:23.913Z,13.80
2019-04-20T07:19:06.200Z,14.20
2019-04-20T07:22:00.560Z,14.40
2019-04-20T07:24:25.279Z,14.60
2019-04-20T07:26:57.874Z,14.60
2019-04-20T07:29:40.852Z,14.80
2019-04-20T07:32:09.111Z,14.80
2019-04-20T07:34:54.015Z,14.80
2019-04-20T07:38:04.624Z,14.90
2019-04-20T07:40:13.509Z,15.20
2019-04-20T07:42:49.487Z,15.40
2019-04-20T07:48:04.177Z,15.50
2019-04-20T07:50:26.693Z,15.50
2019-04-20T07:53:07.955Z,15.50
2019-04-20T07:56:02.409Z,15.50
2019-04-20T07:58:10.925Z,15.50
2019-04-20T08:01:05.747Z,15.60
2019-04-20T08:03:39.403Z,15.60
2019-04-20T08:06:16.438Z,15.70
2019-04-20T08:08:57.248Z,15.70
2019-04-20T08:11:37.978Z,15.90
2019-04-20T08:14:19.323Z,16.00
2019-04-20T08:17:09.845Z,15.80
2019-04-20T08:19:30.165Z,15.80
2019-04-20T08:21:58.805Z,15.90
2019-04-20T08:24:37.157Z,15.90
2019-04-20T08:27:09.121Z,16.00
2019-04-20T08:29:54.289Z,15.90
2019-04-20T08:32:37.807Z,16.10
2019-04-20T08:35:15.356Z,16.00
2019-04-20T08:38:02.077Z,16.30
2019-04-20T08:40:25.411Z,16.40
2019-04-20T08:43:10.761Z,16.40
2019-04-20T08:45:43.311Z,16.40
2019-04-20T08:48:18.657Z,16.50
2019-04-20T08:50:50.793Z,16.60
2019-04-20T08:53:31.729Z,16.60
2019-04-20T08:55:57.006Z,16.70
2019-04-20T08:58:18.100Z,16.90
2019-04-20T09:00:55.406Z,16.80
2019-04-20T09:03:40.876Z,16.90
2019-04-20T09:06:21.608Z,16.90
2019-04-20T09:08:50.339Z,17.00
2019-04-20T09:11:39.998Z,17.20
2019-04-20T09:13:55.914Z,17.10
2019-04-20T09:16:38.585Z,17.10
2019-04-20T09:19:09.463Z,17.30
2019-04-20T09:21:49.131Z,17.40
2019-04-20T09:24:34.675Z,17.30
2019-04-20T09:27:07.721Z,17.30
2019-04-20T09:29:37.163Z,17.30
2019-04-20T09:32:26.233Z,17.30
2019-04-20T09:34:59.994Z,17.30
2019-04-20T09:37:51.139Z,17.30
2019-04-20T09:40:40.504Z,17.40
2019-04-20T09:42:52.767Z,17.50
2019-04-20T09:45:40.983Z,17.80
2019-04-20T09:48:17.336Z,17.70
2019-04-20T09:51:05.164Z,17.50
2019-04-20T09:53:31.655Z,17.50
2019-04-20T09:56:14.552Z,17.70
2019-04-20T09:58:50.985Z,17.70
2019-04-20T10:01:19.031Z,17.70
2019-04-20T10:03:40.950Z,17.80
2019-04-20T10:06:18.848Z,17.70
2019-04-20T10:08:54.194Z,18.10
2019-04-20T10:11:25.489Z,18.10
2019-04-20T10:14:01.953Z,18.10
2019-04-20T10:16:35.747Z,18.00
2019-04-20T10:19:20.570Z,17.90
2019-04-20T10:21:50.641Z,17.90
2019-04-20T10:24:24.462Z,17.90
2019-04-20T10:26:58.819Z,17.90
2019-04-20T10:29:33.567Z,17.90
2019-04-20T10:32:12.567Z,17.90
2019-04-20T10:34:46.211Z,18.00
2019-04-20T10:37:21.829Z,18.00
2019-04-20T10:39:56.542Z,18.10
2019-04-20T10:42:34.297Z,18.00
2019-04-20T10:45:10.787Z,18.10
2019-04-20T10:47:45.274Z,18.10
2019-04-20T10:50:19.196Z,18.20
2019-04-20T10:52:53.982Z,18.20
2019-04-20T10:55:29.132Z,18.40
2019-04-20T10:58:03.870Z,18.70
2019-04-20T11:00:45.932Z,18.80
2019-04-20T11:03:22.803Z,18.90
2019-04-20T11:05:56.707Z,18.90
2019-04-20T11:08:31.036Z,18.90
2019-04-20T11:11:12.991Z,18.90
2019-04-20T11:13:41.713Z,19.00
2019-04-20T11:16:15.249Z,19.30
2019-04-20T11:18:49.407Z,19.20
2019-04-20T11:21:24.629Z,19.50
2019-04-20T11:23:58.451Z,19.30
2019-04-20T11:26:35.358Z,19.30
2019-04-20T11:29:08.382Z,19.10
2019-04-20T11:31:48.757Z,18.90
2019-04-20T11:34:23.526Z,19.10
2019-04-20T11:37:19.371Z,19.40
2019-04-20T11:42:57.416Z,19.40
2019-04-20T11:45:38.512Z,19.50
2019-04-20T11:48:12.070Z,19.30
2019-04-20T11:50:45.772Z,19.40
2019-04-20T11:53:19.464Z,19.30
2019-04-20T11:55:54.252Z,19.50
2019-04-20T11:58:28.001Z,19.80
2019-04-20T12:01:10.363Z,20.10
2019-04-20T12:03:50.653Z,20.20
2019-04-20T12:06:14.974Z,20.30
2019-04-20T12:08:49.209Z,20.60
2019-04-20T12:11:34.801Z,20.30
2019-04-20T12:13:58.679Z,20.10
2019-04-20T12:16:32.301Z,20.30
2019-04-20T12:19:06.402Z,20.70
2019-04-20T12:21:42.072Z,20.70
2019-04-20T12:24:18.404Z,20.80
2019-04-20T12:26:52.165Z,20.70
2019-04-20T12:29:25.886Z,20.70
2019-04-20T12:32:05.252Z,20.30
2019-04-20T12:34:39.067Z,20.20
2019-04-20T12:37:15.428Z,20.40
2019-04-20T12:42:48.819Z,20.40
2019-04-20T12:45:25.941Z,20.80
2019-04-20T12:50:53.221Z,20.60
2019-04-20T12:53:26.794Z,20.60
2019-04-20T12:56:00.209Z,20.80
2019-04-20T12:58:34.792Z,20.60
2019-04-20T13:18:41.231Z,21.10
2019-04-20T13:21:16.899Z,21.00
2019-04-20T13:23:51.151Z,21.00
2019-04-20T13:27:13.225Z,21.20
2019-04-20T13:32:15.843Z,20.60
2019-04-20T13:37:52.021Z,20.80
2019-04-20T13:40:31.386Z,20.30
2019-04-20T13:43:05.809Z,20.00
2019-04-20T13:45:39.523Z,20.30
2019-04-20T13:48:12.998Z,20.70
2019-04-20T13:50:47.567Z,20.50
2019-04-20T13:53:21.272Z,20.80
2019-04-20T13:55:56.054Z,20.30
2019-04-20T13:58:49.876Z,20.40
2019-04-20T14:01:28.729Z,20.80
2019-04-20T14:09:33.146Z,20.20
2019-04-20T14:12:22.518Z,20.40
2019-04-20T14:14:49.140Z,20.70
2019-04-20T14:17:23.439Z,21.70
2019-04-20T14:40:38.263Z,23.20
2019-04-20T14:46:19.301Z,22.10
2019-04-20T14:48:52.949Z,22.00
2019-04-20T14:51:27.837Z,21.00
2019-04-20T14:54:01.450Z,21.40
2019-04-20T14:56:35.797Z,21.50
2019-04-20T14:59:11.485Z,20.80
2019-04-20T15:01:46.742Z,20.50
2019-04-20T15:04:24.658Z,20.30
2019-04-20T15:06:57.800Z,19.90
2019-04-20T15:09:34.594Z,19.60
2019-04-20T15:12:08.678Z,19.30
2019-04-20T15:21:29.361Z,19.20
2019-04-20T15:24:03.724Z,19.10
2019-04-20T15:29:28.495Z,19.00
2019-04-20T15:32:02.190Z,19.10
2019-04-20T15:34:37.159Z,19.10
2019-04-20T15:37:12.041Z,19.00
2019-04-20T15:39:45.675Z,19.00
2019-04-20T15:42:19.241Z,19.00
2019-04-20T15:44:53.505Z,19.00
2019-04-20T15:47:27.946Z,19.00
2019-04-20T15:50:02.300Z,18.80
2019-04-20T15:52:40.990Z,18.70
2019-04-20T15:55:19.680Z,18.60
2019-04-20T15:57:46.567Z,18.60
2019-04-20T16:00:22.547Z,18.40
2019-04-20T16:03:01.288Z,18.30
2019-04-20T16:05:39.228Z,18.30
2019-04-20T16:08:32.251Z,18.20
2019-04-20T16:11:07.071Z,18.00
2019-04-20T16:13:44.681Z,17.90
2019-04-20T16:16:16.250Z,17.90
2019-04-20T16:18:50.693Z,17.80
2019-04-20T16:21:28.100Z,17.70
2019-04-20T16:24:01.273Z,17.70
2019-04-20T16:26:39.880Z,17.60
2019-04-20T16:29:13.568Z,17.50
2019-04-20T16:31:49.914Z,17.40
2019-04-20T16:34:23.372Z,17.30
2019-04-20T16:36:58.638Z,17.20
2019-04-20T16:39:32.379Z,17.10
2019-04-20T16:42:06.943Z,17.00
2019-04-20T16:44:41.109Z,16.90
2019-04-20T16:47:14.720Z,16.80
2019-04-20T16:49:48.809Z,16.70
2019-04-20T16:52:23.045Z,16.70
2019-04-20T16:54:57.699Z,16.60
2019-04-20T16:57:39.997Z,16.60
2019-04-20T17:00:15.616Z,16.50
2019-04-20T17:02:50.091Z,16.40
2019-04-20T17:05:25.712Z,16.40
2019-04-20T17:08:02.777Z,16.30
2019-04-20T17:10:36.870Z,16.20
2019-04-20T17:13:11.904Z,16.10
2019-04-20T17:15:45.758Z,16.00
2019-04-20T17:18:19.534Z,15.90
2019-04-20T17:20:53.688Z,15.90
2019-04-20T17:23:28.508Z,15.80
2019-04-20T17:26:04.058Z,15.70
2019-04-20T17:28:45.178Z,15.60
2019-04-20T17:34:43.072Z,15.40
2019-04-20T17:37:12.921Z,15.30
2019-04-20T17:40:09.213Z,15.20
2019-04-20T17:42:36.314Z,15.20
2019-04-20T17:45:04.813Z,15.00
2019-04-20T17:47:51.277Z,14.80
2019-04-20T17:50:34.395Z,14.70
2019-04-20T17:53:14.431Z,14.40
2019-04-20T17:55:51.382Z,14.30
2019-04-20T17:58:29.174Z,14.10
2019-04-20T18:01:32.821Z,13.90
2019-04-20T18:04:31.783Z,13.80
2019-04-20T18:06:50.474Z,13.50
2019-04-20T18:09:58.621Z,13.40
2019-04-20T18:12:14.165Z,13.40
2019-04-20T18:17:51.797Z,13.20
2019-04-20T18:20:28.785Z,13.10
2019-04-20T18:23:02.618Z,12.90
2019-04-20T18:26:00.074Z,12.90
2019-04-20T18:28:26.393Z,12.80
2019-04-20T18:31:08.612Z,12.70
2019-04-20T18:33:42.341Z,12.60
2019-04-20T18:36:23.718Z,12.30
2019-04-20T18:38:57.417Z,12.30
2019-04-20T18:41:33.899Z,12.10
2019-04-20T18:44:02.643Z,12.10
2019-04-20T18:47:00.266Z,12.00
2019-04-20T18:49:31.315Z,12.00
2019-04-20T18:51:46.764Z,11.90
2019-04-20T18:54:26.531Z,11.80
2019-04-20T18:56:57.991Z,11.60
2019-04-20T18:59:41.774Z,11.30
2019-04-20T19:02:16.273Z,11.40
2019-04-20T19:04:43.904Z,11.20
2019-04-20T19:07:17.635Z,10.70
2019-04-20T19:10:00.346Z,10.60
2019-04-20T19:12:37.556Z,10.70
2019-04-20T19:15:44.256Z,10.50
2019-04-20T19:18:12.883Z,10.60
2019-04-20T19:20:45.715Z,10.30
2019-04-20T19:23:19.274Z,10.40
2019-04-20T19:25:55.429Z,10.40
2019-04-20T19:28:37.783Z,10.30
2019-04-20T19:31:17.115Z,10.30
2019-04-20T19:34:00.845Z,10.20
2019-04-20T19:36:28.083Z,10.20
2019-04-20T19:39:04.849Z,10.10
2019-04-20T19:41:39.102Z,10.00
2019-04-20T19:44:13.147Z,9.90
2019-04-20T19:46:53.768Z,9.90
2019-04-20T19:49:21.979Z,9.90
2019-04-20T19:52:20.178Z,9.60
2019-04-20T19:54:42.662Z,9.20
2019-04-20T19:57:16.319Z,9.20
2019-04-20T19:59:40.157Z,9.10
2019-04-20T20:02:09.643Z,9.30
2019-04-20T20:04:49.341Z,9.20
2019-04-20T20:07:27.885Z,9.10
2019-04-20T20:09:58.238Z,9.10
2019-04-20T20:12:29.515Z,9.10
2019-04-20T20:15:07.373Z,9.00
2019-04-20T20:17:59.034Z,8.60
2019-04-20T20:20:38.215Z,8.60
2019-04-20T20:22:53.503Z,8.40
2019-04-20T20:25:32.876Z,8.30
2019-04-20T20:28:16.983Z,8.30
2019-04-20T20:30:49.645Z,8.20
2019-04-20T20:33:30.163Z,8.00
2019-04-20T20:35:57.104Z,7.90
2019-04-20T20:38:31.670Z,7.80
2019-04-20T20:41:10.298Z,7.90
2019-04-20T20:43:46.967Z,7.80
2019-04-20T20:46:20.100Z,7.60
2019-04-20T20:49:07.927Z,7.50
2019-04-20T20:51:46.674Z,7.40
2019-04-20T20:54:03.351Z,7.40
2019-04-20T20:56:35.188Z,7.10
2019-04-20T20:59:11.445Z,7.10
2019-04-20T21:01:56.141Z,6.90
2019-04-20T21:04:23.768Z,6.80
2019-04-20T21:06:58.332Z,6.90
2019-04-20T21:09:33.358Z,6.80
2019-04-20T21:12:12.659Z,6.60
2019-04-20T21:14:43.486Z,6.80
2019-04-20T21:17:21.639Z,6.80
2019-04-20T21:20:06.312Z,6.70
2019-04-20T21:22:50.430Z,6.90
2019-04-20T21:25:33.606Z,6.80
2019-04-20T21:31:08.058Z,6.70
2019-04-20T21:34:18.653Z,6.80
2019-04-20T21:36:50.604Z,6.70
2019-04-20T21:39:34.656Z,6.70
2019-04-20T21:42:09.177Z,6.70
2019-04-20T21:44:41.356Z,6.70
2019-04-20T21:47:15.675Z,6.50
2019-04-20T21:49:59.100Z,6.40
2019-04-20T21:52:29.856Z,6.40
2019-04-20T21:54:58.172Z,6.30
2019-04-20T21:57:39.046Z,6.30
2019-04-20T22:00:21.946Z,6.30
2019-04-20T22:02:56.751Z,6.30
2019-04-20T22:05:25.285Z,6.20
2019-04-20T22:08:22.181Z,6.20
2019-04-20T22:10:57.730Z,5.90
2019-04-20T22:13:37.683Z,6.00
2019-04-20T22:19:58.694Z,6.00
2019-04-20T22:22:41.106Z,5.80
2019-04-20T22:25:06.288Z,5.80
2019-04-20T22:27:34.968Z,5.70
2019-04-20T22:30:10.229Z,5.80
2019-04-20T22:32:47.008Z,5.70
2019-04-20T22:35:19.711Z,5.60
2019-04-20T22:38:07.001Z,5.60
2019-04-20T22:40:38.546Z,5.60
2019-04-20T22:43:12.550Z,5.60
2019-04-20T22:45:50.617Z,5.70
2019-04-20T22:48:22.828Z,5.70
2019-04-20T22:51:17.839Z,5.60
2019-04-20T22:53:51.956Z,5.80
2019-04-20T22:56:30.329Z,5.60
2019-04-20T22:58:59.117Z,5.70
2019-04-20T23:01:29.896Z,5.80
2019-04-20T23:03:59.025Z,5.70
2019-04-20T23:06:37.348Z,5.80
2019-04-20T23:09:11.478Z,5.90
2019-04-20T23:11:45.257Z,5.60
2019-04-20T23:14:18.750Z,5.60
2019-04-20T23:16:54.408Z,5.40
2019-04-20T23:19:36.396Z,5.40
2019-04-20T23:22:06.455Z,5.50
2019-04-20T23:24:39.292Z,5.40
2019-04-20T23:27:18.836Z,5.20
2019-04-20T23:29:49.181Z,5.20
2019-04-20T23:32:26.223Z,5.40
2019-04-20T23:38:15.694Z,5.10
2019-04-20T23:40:45.821Z,5.30
2019-04-20T23:43:25.421Z,5.20
2019-04-20T23:46:01.134Z,5.30
2019-04-20T23:48:46.485Z,5.10
2019-04-20T23:51:44.232Z,5.20
2019-04-20T23:54:06.015Z,5.10
2019-04-20T23:56:32.053Z,5.00
2019-04-20T23:59:06.478Z,5.00
